Pagina principale
METAR-TAF:

METAR-TAF

Aeroporti :

Logroño, Spagna

latitudine: 42-27N, longitudine: 002-20W, altezza: 353 m

Osservazione

Il bollettino è stato emesso 14 minuti fa, alle 22:30 UTC
Vento 1 kt da direzioni variabili
Temperature 27°C
Umidità 45%
Pressione 1018 hPa
Visibilità 10 km o più

METAR: LELO 222230Z AUTO VRB01KT 9999 NCD 27/14 Q1018

Ora: 00:44 (22:44 UTC)

Previsione

Il bollettino è stato emesso 5 ore e 44 minuti fa, alle 17:00 UTC
Previsione valida dal 22 alle 18 UTC al 23 alle 03 UTC
Vento 10 kt da est
Visibilità 10 km o più
nessuna nube inferiore a 1500 m e nessun cumulonembo
Probabilità 40% :
Temporaneamente
dal 22 alle 18 UTC al 22 alle 24 UTC
Poco nuvoloso ad un'altezza di 4000 ft, Cumulo congesto.

TAF: LELO 221700Z 2218/2303 10010KT CAVOK PROB40 TEMPO 2218/2224 FEW040TCU

Osservazioni e previsioni meteorologiche di più di 4000 aeroporti (messaggi METAR e TAF).

Le stazioni disponibili sono rappresentate dai dischi gialli e rossi sulla carta.

Puntare il mouse per vedere il nome della stazione.

Clicca sopra per visualizzare le osservazioni e previsioni meteorologiche.

Per cambiare la mappa : fare clic sui pulsanti verdi con una croce nera per ingrandire, il pulsante verde con un trattino per diminuire, o sulla freccia verde per le mappe adiacenti.


METAR-TAF: